Time;durP1;ratioP1;P1;durP2;ratioP2;P2;SDS_P1;SDS_P2;PMS_P1;PMS_P2;Temp;Humidity;BMP_temperature;BMP_pressure;BME280_temperature;BME280_humidity;BME280_pressure;Samples;Min_cycle;Max_cycle;Signal;HPM_P1;HPM_P2
2022/12/17 13:06:14;;;;;;;2.00;1.80;;;24.40;49.70;;;;;;4990690;28;20558;-45
2022/12/17 13:08:46;;;;;;;1.90;1.80;;;24.40;49.70;;;;;;4991354;28;20189;-47
2022/12/17 13:11:31;;;;;;;1.90;1.80;;;24.40;49.80;;;;;;4992043;28;20224;-45
2022/12/17 13:14:07;;;;;;;1.88;1.75;;;24.30;49.80;;;;;;4990547;28;20208;-44
2022/12/17 13:16:51;;;;;;;1.77;1.67;;;24.40;49.80;;;;;;4990169;28;20217;-47
2022/12/17 13:19:33;;;;;;;2.58;1.90;;;24.40;49.80;;;;;;4991747;28;20204;-48
2022/12/17 13:22:29;;;;;;;2.28;2.05;;;24.30;50.30;;;;;;4998460;28;20211;-49
2022/12/17 13:25:17;;;;;;;1.83;1.73;;;24.30;49.70;;;;;;5013798;28;20742;-41
2022/12/17 13:27:48;;;;;;;1.75;1.65;;;24.30;49.70;;;;;;5013745;28;20224;-45
2022/12/17 13:30:25;;;;;;;1.98;1.88;;;24.30;49.80;;;;;;5013907;28;20755;-47
2022/12/17 13:33:08;;;;;;;1.70;1.60;;;24.30;49.80;;;;;;5013822;28;20207;-44
2022/12/17 13:35:44;;;;;;;2.00;1.80;;;24.30;49.80;;;;;;5013496;28;20197;-48
2022/12/17 13:38:21;;;;;;;2.33;1.98;;;24.30;49.80;;;;;;5013494;28;20219;-46
2022/12/17 13:41:06;;;;;;;2.20;1.98;;;24.20;49.80;;;;;;5013648;28;20205;-45
2022/12/17 13:43:44;;;;;;;1.70;1.60;;;24.20;49.80;;;;;;5013090;28;20220;-46
2022/12/17 13:46:25;;;;;;;2.10;2.00;;;24.20;49.80;;;;;;5012896;28;20228;-42
2022/12/17 13:48:57;;;;;;;2.10;1.90;;;24.20;49.80;;;;;;5013154;28;20200;-42
2022/12/17 13:51:29;;;;;;;1.90;1.80;;;24.20;49.80;;;;;;5013226;28;20679;-45
2022/12/17 13:54:01;;;;;;;2.17;1.98;;;24.20;49.80;;;;;;5013539;28;20564;-44
2022/12/17 13:56:36;;;;;;;2.25;1.95;;;24.20;49.80;;;;;;5013897;28;20224;-47
2022/12/17 13:59:07;;;;;;;1.80;1.70;;;24.20;49.80;;;;;;5013046;28;20200;-43
2022/12/17 14:01:47;;;;;;;1.85;1.75;;;24.20;49.80;;;;;;5012863;28;20672;-48
2022/12/17 14:04:26;;;;;;;1.63;1.52;;;24.20;49.80;;;;;;5012877;28;20220;-47
2022/12/17 14:06:59;;;;;;;2.10;2.00;;;24.20;49.90;;;;;;5012497;28;20223;-45
2022/12/17 14:09:35;;;;;;;1.92;1.83;;;24.20;49.90;;;;;;5013035;28;20200;-41
2022/12/17 14:12:24;;;;;;;2.08;1.90;;;24.10;49.90;;;;;;5013295;28;20197;-43
2022/12/17 14:14:57;;;;;;;1.70;1.60;;;24.20;49.90;;;;;;5013180;28;20201;-41
2022/12/17 14:17:29;;;;;;;2.28;2.00;;;24.10;49.80;;;;;;5013038;28;20221;-43
2022/12/17 14:20:04;;;;;;;1.75;1.65;;;24.10;49.90;;;;;;5013128;28;20200;-45
2022/12/17 14:22:37;;;;;;;2.65;1.80;;;24.10;49.90;;;;;;5012873;28;20205;-44
2022/12/17 14:25:16;;;;;;;1.83;1.70;;;24.10;49.90;;;;;;5012121;28;20233;-49
2022/12/17 14:27:57;;;;;;;1.83;1.63;;;24.10;49.90;;;;;;5012350;28;20228;-45
2022/12/17 14:30:37;;;;;;;1.70;1.60;;;24.10;49.90;;;;;;5012163;28;20197;-44
2022/12/17 14:33:26;;;;;;;1.70;1.60;;;24.10;50.50;;;;;;5009404;28;20283;-46
2022/12/17 14:35:59;;;;;;;1.88;1.70;;;24.10;49.80;;;;;;5012336;28;20224;-46
2022/12/17 14:38:30;;;;;;;1.88;1.70;;;24.00;49.80;;;;;;5011996;28;20208;-44
2022/12/17 14:42:24;;;;;;;1.88;1.60;;;24.00;49.80;;;;;;5012030;28;20212;-44
2022/12/17 14:44:03;;;;;;;1.95;1.75;;;24.00;49.90;;;;;;5011813;28;20225;-45
2022/12/17 14:46:36;;;;;;;1.90;1.67;;;24.00;49.90;;;;;;5012021;28;20224;-45
2022/12/17 14:49:18;;;;;;;2.10;1.90;;;24.00;49.90;;;;;;5011871;28;20283;-44
2022/12/17 14:51:49;;;;;;;1.70;1.60;;;24.00;49.90;;;;;;5011997;28;20656;-48
2022/12/17 14:54:30;;;;;;;1.73;1.63;;;24.00;49.90;;;;;;5014655;28;20189;-48
2022/12/17 14:57:01;;;;;;;2.55;1.80;;;24.00;49.90;;;;;;5015149;28;20259;-45
2022/12/17 14:59:39;;;;;;;1.95;1.85;;;24.00;50.00;;;;;;5012256;28;20200;-47
2022/12/17 15:02:22;;;;;;;1.88;1.77;;;24.00;49.90;;;;;;5012052;28;20204;-48
2022/12/17 15:04:54;;;;;;;1.70;1.60;;;23.90;49.80;;;;;;5012103;28;20231;-48
2022/12/17 15:07:28;;;;;;;1.80;1.70;;;24.00;49.90;;;;;;5012066;28;20243;-44
2022/12/17 15:09:59;;;;;;;1.63;1.52;;;23.90;49.90;;;;;;5004919;28;20189;-44
2022/12/17 15:12:30;;;;;;;1.75;1.65;;;23.90;49.90;;;;;;4992415;28;20193;-50
2022/12/17 15:15:03;;;;;;;1.63;1.52;;;23.90;49.90;;;;;;4992348;28;20209;-48
2022/12/17 15:17:34;;;;;;;1.83;1.73;;;23.90;50.00;;;;;;4992143;28;20225;-43
2022/12/17 15:20:04;;;;;;;1.83;1.50;;;23.90;50.50;;;;;;4991727;28;20197;-47
2022/12/17 15:22:37;;;;;;;1.73;1.63;;;23.90;49.90;;;;;;5000257;28;20201;-42
2022/12/17 15:25:08;;;;;;;1.80;1.70;;;23.90;50.00;;;;;;5011921;28;20233;-44
2022/12/17 15:27:39;;;;;;;1.98;1.60;;;23.90;50.00;;;;;;5011869;28;20216;-41
2022/12/17 15:30:15;;;;;;;1.60;1.50;;;23.80;50.00;;;;;;5011982;28;20563;-47
2022/12/17 15:32:46;;;;;;;1.70;1.60;;;23.80;50.00;;;;;;5011882;28;20203;-45
2022/12/17 15:35:17;;;;;;;2.38;1.60;;;23.80;49.90;;;;;;5011721;28;20756;-46
2022/12/17 15:37:48;;;;;;;1.90;1.80;;;23.80;49.90;;;;;;5011673;28;20715;-46
2022/12/17 15:40:18;;;;;;;1.50;1.40;;;23.80;49.90;;;;;;5011652;28;20213;-44
2022/12/17 15:45:38;;;;;;;1.80;1.70;;;23.80;49.90;;;;;;5011690;28;20231;-44
2022/12/17 15:48:09;;;;;;;1.67;1.58;;;23.80;49.90;;;;;;5011709;28;20212;-46
2022/12/17 15:50:39;;;;;;;1.50;1.40;;;23.80;50.00;;;;;;5011548;28;20207;-45
2022/12/17 15:53:10;;;;;;;1.77;1.67;;;23.80;50.00;;;;;;5011121;28;20571;-47
2022/12/17 15:55:41;;;;;;;1.75;1.65;;;23.80;50.00;;;;;;5011878;28;20208;-48
2022/12/17 15:58:13;;;;;;;1.75;1.65;;;23.80;50.00;;;;;;5011355;28;20676;-47
2022/12/17 16:00:46;;;;;;;1.85;1.75;;;23.80;50.10;;;;;;5011276;28;20224;-47
2022/12/17 16:03:17;;;;;;;1.80;1.70;;;23.80;50.10;;;;;;5011185;28;20207;-45
2022/12/17 16:05:48;;;;;;;2.00;1.80;;;23.80;50.10;;;;;;5011086;28;20845;-43
2022/12/17 16:08:18;;;;;;;1.85;1.75;;;23.70;50.00;;;;;;5010805;28;20212;-43
2022/12/17 16:10:49;;;;;;;1.80;1.70;;;23.70;50.00;;;;;;5010828;28;20580;-45
2022/12/17 16:13:20;;;;;;;1.75;1.65;;;23.70;50.10;;;;;;5010680;28;20203;-49
2022/12/17 16:15:59;;;;;;;2.00;1.90;;;23.70;50.10;;;;;;5010356;28;20641;-49
2022/12/17 16:18:29;;;;;;;1.77;1.65;;;23.70;50.10;;;;;;5010966;28;20226;-46
2022/12/17 16:21:05;;;;;;;1.80;1.70;;;23.70;50.00;;;;;;5011288;28;20197;-46
2022/12/17 16:23:36;;;;;;;1.77;1.67;;;23.70;50.10;;;;;;5011119;28;20200;-45
2022/12/17 16:26:09;;;;;;;1.80;1.70;;;23.70;50.10;;;;;;5010747;28;20224;-48
2022/12/17 16:28:40;;;;;;;1.70;1.60;;;23.70;50.10;;;;;;5010821;28;20205;-46
2022/12/17 16:31:14;;;;;;;1.73;1.63;;;23.70;50.20;;;;;;5007523;28;20259;-47
2022/12/17 16:33:47;;;;;;;1.73;1.63;;;23.60;50.20;;;;;;5011042;28;20204;-49
2022/12/17 16:36:19;;;;;;;2.15;1.95;;;23.70;50.20;;;;;;5010867;28;20216;-46
2022/12/17 16:38:52;;;;;;;1.70;1.60;;;23.70;50.20;;;;;;5010681;28;20197;-47
2022/12/17 16:41:22;;;;;;;1.88;1.77;;;23.60;50.10;;;;;;5010614;28;20208;-48
2022/12/17 16:43:53;;;;;;;1.90;1.80;;;23.60;50.10;;;;;;5010227;28;20204;-45
2022/12/17 16:46:30;;;;;;;1.63;1.52;;;23.60;50.20;;;;;;5009987;28;20216;-42
2022/12/17 16:49:06;;;;;;;1.50;1.40;;;23.60;50.20;;;;;;5010480;28;20583;-45
2022/12/17 16:51:36;;;;;;;1.50;1.40;;;23.60;50.20;;;;;;5010528;28;20200;-45
2022/12/17 16:54:08;;;;;;;1.75;1.65;;;23.60;50.20;;;;;;5017319;28;20193;-47
2022/12/17 16:56:39;;;;;;;1.60;1.50;;;23.60;50.20;;;;;;5014720;28;20766;-44
2022/12/17 16:59:11;;;;;;;1.80;1.70;;;23.60;50.20;;;;;;5013940;28;20201;-48
2022/12/17 17:01:45;;;;;;;2.30;1.48;;;23.60;50.20;;;;;;5014166;28;20212;-41
2022/12/17 17:04:17;;;;;;;1.80;1.70;;;23.50;50.30;;;;;;4999363;28;20259;-42
2022/12/17 17:06:49;;;;;;;1.70;1.60;;;23.50;50.20;;;;;;4994833;28;20222;-45
2022/12/17 17:09:20;;;;;;;1.75;1.65;;;23.50;50.20;;;;;;4994778;28;20590;-44
2022/12/17 17:11:51;;;;;;;1.80;1.70;;;23.50;50.20;;;;;;4994642;28;20193;-46
2022/12/17 17:14:22;;;;;;;1.60;1.50;;;23.50;50.30;;;;;;4994773;28;20259;-41
2022/12/17 17:16:55;;;;;;;1.60;1.50;;;23.50;50.30;;;;;;4994488;28;20214;-44
2022/12/17 17:19:26;;;;;;;1.73;1.63;;;23.50;50.40;;;;;;4994753;28;20563;-46
2022/12/17 17:21:57;;;;;;;1.70;1.60;;;23.50;50.30;;;;;;4997833;28;20201;-46
2022/12/17 17:24:28;;;;;;;1.77;1.67;;;23.50;50.30;;;;;;5013538;28;20239;-43
2022/12/17 17:26:59;;;;;;;1.67;1.58;;;23.50;50.40;;;;;;5013418;28;20220;-43
2022/12/17 17:29:29;;;;;;;1.98;1.88;;;23.40;50.30;;;;;;5013987;28;20672;-48
2022/12/17 17:32:02;;;;;;;2.20;2.10;;;23.50;50.30;;;;;;5013920;28;20205;-44
2022/12/17 17:34:33;;;;;;;1.75;1.65;;;23.40;50.30;;;;;;5013663;28;20201;-45
2022/12/17 17:37:03;;;;;;;1.63;1.52;;;23.50;50.40;;;;;;5013330;28;20217;-44
2022/12/17 17:39:34;;;;;;;1.80;1.70;;;23.40;50.30;;;;;;5013559;28;20204;-39
2022/12/17 17:42:05;;;;;;;1.63;1.52;;;23.40;50.30;;;;;;5014143;28;20212;-44
2022/12/17 17:44:36;;;;;;;1.58;1.48;;;23.40;50.30;;;;;;5013678;28;20224;-46
2022/12/17 17:47:08;;;;;;;1.70;1.60;;;23.40;50.40;;;;;;5013388;28;20223;-45
2022/12/17 17:49:39;;;;;;;1.80;1.70;;;23.40;50.40;;;;;;5013498;28;20227;-41
2022/12/17 17:52:10;;;;;;;1.70;1.60;;;23.40;50.40;;;;;;5013175;28;20695;-41
2022/12/17 17:54:41;;;;;;;1.63;1.52;;;23.40;50.40;;;;;;5013016;28;20204;-47
2022/12/17 17:57:12;;;;;;;1.65;1.55;;;23.40;50.50;;;;;;5014087;28;20216;-49
2022/12/17 17:59:43;;;;;;;1.80;1.70;;;23.40;50.50;;;;;;5013273;28;20197;-49
2022/12/17 18:02:15;;;;;;;1.50;1.40;;;23.30;50.50;;;;;;5013194;28;20200;-45
2022/12/17 18:04:46;;;;;;;1.63;1.52;;;23.30;50.50;;;;;;5012178;28;20229;-47
2022/12/17 18:07:17;;;;;;;1.80;1.70;;;23.30;50.50;;;;;;5012751;28;20224;-43
2022/12/17 18:09:47;;;;;;;1.30;1.23;;;23.30;50.50;;;;;;5013058;28;20196;-46
2022/12/17 18:15:05;;;;;;;1.70;1.60;;;23.30;50.50;;;;;;5013452;28;20304;-46
2022/12/17 18:17:38;;;;;;;1.40;1.30;;;23.30;50.50;;;;;;5012999;28;20309;-46
2022/12/17 18:20:10;;;;;;;1.38;1.27;;;23.30;50.50;;;;;;5013192;28;20380;-46
2022/12/17 18:22:41;;;;;;;1.40;1.30;;;23.30;50.60;;;;;;5013199;28;20710;-47
2022/12/17 18:25:11;;;;;;;1.75;1.65;;;23.30;50.60;;;;;;5012706;28;20250;-42
2022/12/17 18:27:42;;;;;;;1.50;1.40;;;23.30;50.60;;;;;;5012571;28;20212;-39
2022/12/17 18:30:15;;;;;;;1.90;1.70;;;23.30;50.60;;;;;;5012321;28;20196;-45
2022/12/17 18:32:47;;;;;;;1.55;1.45;;;23.30;50.60;;;;;;5012107;28;20227;-43
2022/12/17 18:35:18;;;;;;;1.60;1.50;;;23.20;50.50;;;;;;5012453;28;20208;-44
2022/12/17 18:37:49;;;;;;;1.40;1.30;;;23.20;50.60;;;;;;5009187;28;20228;-39
2022/12/17 18:40:20;;;;;;;1.60;1.50;;;23.20;50.60;;;;;;5012247;28;20215;-43
2022/12/17 18:45:37;;;;;;;1.58;1.48;;;23.20;50.70;;;;;;5012349;28;20232;-45
2022/12/17 18:48:10;;;;;;;1.48;1.38;;;23.20;50.60;;;;;;5014949;28;20197;-46
2022/12/17 18:50:40;;;;;;;1.35;1.25;;;23.20;50.70;;;;;;5012688;28;20201;-46
2022/12/17 18:53:11;;;;;;;1.38;1.27;;;23.20;50.70;;;;;;5012347;28;20209;-44
2022/12/17 18:55:43;;;;;;;1.45;1.35;;;23.20;50.70;;;;;;5014328;28;20646;-42
2022/12/17 18:58:13;;;;;;;1.40;1.30;;;23.20;50.70;;;;;;5012417;28;20288;-49
2022/12/17 19:00:44;;;;;;;1.65;1.55;;;23.10;50.70;;;;;;5012474;28;20204;-47
2022/12/17 19:03:17;;;;;;;1.40;1.30;;;23.20;50.80;;;;;;5008957;28;20208;-47
2022/12/17 19:05:47;;;;;;;1.40;1.30;;;23.10;50.80;;;;;;4993142;28;20221;-48
2022/12/17 19:08:18;;;;;;;1.40;1.30;;;23.10;50.70;;;;;;4992357;28;20212;-44
2022/12/17 19:10:49;;;;;;;1.10;1.10;;;23.10;50.70;;;;;;4992645;28;20201;-44
2022/12/17 19:13:20;;;;;;;1.35;1.25;;;23.10;50.70;;;;;;4992529;28;20201;-45
2022/12/17 19:15:50;;;;;;;1.50;1.40;;;23.10;50.70;;;;;;4992360;28;20229;-45
2022/12/17 19:18:23;;;;;;;1.02;1.00;;;23.10;50.80;;;;;;4991585;28;20206;-46
2022/12/17 19:21:00;;;;;;;1.60;1.30;;;23.10;50.80;;;;;;4992438;28;20197;-49
2022/12/17 19:23:31;;;;;;;1.60;1.50;;;23.10;50.80;;;;;;5008097;28;20201;-42
2022/12/17 19:26:08;;;;;;;1.40;1.30;;;23.10;50.80;;;;;;5011830;28;20282;-48
2022/12/17 19:28:40;;;;;;;1.10;1.02;;;23.10;50.80;;;;;;5011727;28;20215;-43
2022/12/17 19:31:11;;;;;;;1.20;1.10;;;23.10;50.80;;;;;;5011934;28;20284;-49
2022/12/17 19:33:44;;;;;;;1.38;1.27;;;23.00;50.80;;;;;;5011847;28;20994;-50
2022/12/17 19:36:17;;;;;;;1.30;1.20;;;23.00;50.80;;;;;;5011693;28;20224;-50
2022/12/17 19:38:48;;;;;;;1.42;1.33;;;23.00;50.80;;;;;;4997708;28;20196;-45
2022/12/17 19:41:19;;;;;;;1.20;1.10;;;23.00;50.80;;;;;;5010806;28;20215;-52
2022/12/17 19:43:55;;;;;;;1.40;1.30;;;23.00;50.80;;;;;;5008675;28;20205;-50
2022/12/17 19:46:27;;;;;;;1.25;1.15;;;23.00;50.90;;;;;;4990475;28;20256;-52
2022/12/17 19:49:00;;;;;;;1.20;1.20;;;23.00;50.90;;;;;;4991137;28;20201;-47
2022/12/17 19:51:32;;;;;;;1.33;1.23;;;23.00;50.90;;;;;;4991496;28;20208;-47
2022/12/17 19:54:03;;;;;;;1.27;1.17;;;23.00;50.90;;;;;;4990973;28;20198;-49
2022/12/17 19:56:35;;;;;;;2.05;1.33;;;23.00;50.90;;;;;;5006631;28;20240;-51
2022/12/17 19:59:07;;;;;;;1.30;1.20;;;23.00;50.90;;;;;;5010159;28;20239;-51
2022/12/17 20:01:40;;;;;;;1.10;1.10;;;23.00;50.90;;;;;;4990445;28;20197;-52
2022/12/17 20:04:14;;;;;;;1.08;0.98;;;23.00;50.90;;;;;;4991689;28;20198;-46
2022/12/17 20:06:45;;;;;;;1.20;1.10;;;23.00;50.90;;;;;;5010218;28;20232;-48
2022/12/17 20:09:17;;;;;;;1.08;1.08;;;23.00;50.90;;;;;;5010448;28;20208;-49
2022/12/17 20:11:50;;;;;;;1.17;1.17;;;23.00;50.90;;;;;;5010190;28;20714;-47
2022/12/17 20:14:25;;;;;;;1.15;1.10;;;23.00;51.00;;;;;;5010120;28;20211;-45
2022/12/17 20:16:57;;;;;;;1.00;1.00;;;22.90;50.90;;;;;;5009848;28;20640;-46
2022/12/17 20:19:31;;;;;;;0.90;0.90;;;22.90;50.90;;;;;;5008548;28;20236;-49
2022/12/17 20:22:03;;;;;;;1.25;1.15;;;22.90;50.90;;;;;;5010338;28;20262;-41
2022/12/17 20:24:33;;;;;;;1.00;1.00;;;22.90;50.90;;;;;;5010096;28;20263;-45
2022/12/17 20:27:04;;;;;;;1.00;1.00;;;22.90;50.90;;;;;;5009561;28;20595;-45
2022/12/17 20:29:35;;;;;;;1.20;1.10;;;22.90;50.90;;;;;;5013706;28;20204;-43
2022/12/17 20:32:06;;;;;;;1.20;1.10;;;22.90;51.00;;;;;;5014244;28;20197;-49
2022/12/17 20:34:38;;;;;;;1.00;1.00;;;22.90;50.90;;;;;;5014154;28;20197;-50
2022/12/17 20:37:09;;;;;;;1.00;1.00;;;22.90;50.90;;;;;;5013839;28;20571;-46
2022/12/17 20:39:40;;;;;;;1.25;1.15;;;22.90;51.00;;;;;;5016270;28;20193;-42
2022/12/17 20:42:11;;;;;;;1.15;1.02;;;22.90;51.00;;;;;;5014956;28;20208;-45
2022/12/17 20:44:41;;;;;;;2.05;1.13;;;22.90;51.00;;;;;;5013502;28;20189;-44
2022/12/17 20:47:12;;;;;;;1.15;1.00;;;22.90;50.90;;;;;;5000731;28;20224;-46
2022/12/17 20:49:44;;;;;;;1.20;1.10;;;22.90;51.00;;;;;;5011986;28;20200;-40
2022/12/17 20:52:15;;;;;;;0.85;0.85;;;22.90;51.00;;;;;;5014011;28;20201;-41
2022/12/17 20:54:46;;;;;;;0.80;0.80;;;22.90;51.00;;;;;;5015738;28;20203;-46
2022/12/17 20:57:17;;;;;;;0.90;0.90;;;22.90;51.10;;;;;;5018268;28;20225;-48
2022/12/17 20:59:47;;;;;;;0.93;0.90;;;22.90;51.20;;;;;;4999761;28;20197;-46
2022/12/17 21:02:18;;;;;;;0.75;0.75;;;22.90;51.10;;;;;;5013637;28;20653;-47
2022/12/17 21:04:51;;;;;;;1.42;1.00;;;22.90;51.10;;;;;;5014330;28;20204;-47
2022/12/17 21:07:21;;;;;;;1.00;1.00;;;22.90;51.10;;;;;;5013125;28;20233;-50
2022/12/17 21:09:52;;;;;;;0.88;0.88;;;22.90;51.10;;;;;;5013466;28;20208;-47
2022/12/17 21:13:27;;;;;;;1.00;1.00;;;22.90;51.10;;;;;;5013031;28;20197;-48
2022/12/17 21:15:13;;;;;;;1.08;0.98;;;22.90;51.10;;;;;;5013183;28;20199;-46
2022/12/17 21:17:44;;;;;;;0.95;0.85;;;22.90;51.10;;;;;;5013465;28;20224;-48
2022/12/17 21:20:17;;;;;;;1.20;1.10;;;22.90;51.10;;;;;;5013782;28;20200;-51
2022/12/17 21:22:48;;;;;;;1.30;0.98;;;22.90;51.10;;;;;;5013242;28;20200;-50
2022/12/17 21:25:19;;;;;;;0.80;0.80;;;22.90;51.10;;;;;;5012868;28;20204;-48
2022/12/17 21:27:49;;;;;;;0.90;0.90;;;22.90;51.10;;;;;;5013662;28;20699;-45
2022/12/17 21:30:20;;;;;;;0.90;0.90;;;22.90;51.20;;;;;;5012941;28;20193;-43
2022/12/17 21:32:51;;;;;;;1.00;0.90;;;22.90;51.20;;;;;;5000268;28;20217;-50
2022/12/17 21:35:23;;;;;;;1.10;0.90;;;22.90;51.20;;;;;;4998373;28;20193;-44
2022/12/17 21:37:54;;;;;;;1.00;1.00;;;22.90;51.20;;;;;;5013601;28;20220;-45
2022/12/17 21:40:25;;;;;;;1.45;0.70;;;22.90;51.20;;;;;;5011599;28;20262;-46
2022/12/17 21:43:05;;;;;;;1.10;1.02;;;22.80;51.10;;;;;;5012383;28;20653;-45
2022/12/17 21:45:39;;;;;;;0.80;0.80;;;22.90;51.20;;;;;;5012970;28;20189;-42
2022/12/17 21:48:11;;;;;;;1.65;0.90;;;22.90;51.20;;;;;;5013044;28;20574;-49
2022/12/17 21:50:46;;;;;;;1.00;0.80;;;22.90;51.20;;;;;;5013395;28;20193;-45
2022/12/17 21:53:17;;;;;;;0.80;0.80;;;22.90;51.20;;;;;;5012980;28;20656;-48
2022/12/17 21:55:47;;;;;;;0.80;0.80;;;22.80;51.20;;;;;;5013098;28;20589;-42
2022/12/17 21:58:18;;;;;;;0.98;0.90;;;22.80;51.20;;;;;;5012452;28;20212;-45
2022/12/17 22:00:49;;;;;;;1.00;0.90;;;22.80;51.20;;;;;;5012843;28;20196;-42
2022/12/17 22:03:20;;;;;;;1.05;0.80;;;22.90;51.30;;;;;;5012838;28;20216;-39
2022/12/17 22:05:52;;;;;;;0.75;0.75;;;22.80;51.20;;;;;;5013361;28;20220;-52
2022/12/17 22:08:23;;;;;;;1.08;0.90;;;22.80;51.30;;;;;;5020523;28;20204;-49
2022/12/17 22:10:54;;;;;;;1.20;1.02;;;22.80;51.30;;;;;;5012400;28;20189;-49
2022/12/17 22:16:11;;;;;;;0.90;0.90;;;22.80;51.50;;;;;;5012530;28;20251;-49
2022/12/17 22:18:42;;;;;;;1.13;1.05;;;22.80;51.40;;;;;;5012485;28;20197;-50
2022/12/17 22:21:15;;;;;;;0.80;0.80;;;22.80;51.40;;;;;;5012760;28;20280;-52
2022/12/17 22:23:48;;;;;;;1.05;0.85;;;22.80;51.40;;;;;;5012313;28;20201;-50
2022/12/17 22:26:20;;;;;;;0.80;0.80;;;22.80;51.40;;;;;;5011835;28;20225;-50
2022/12/17 22:28:51;;;;;;;0.80;0.80;;;22.80;51.50;;;;;;5011885;28;20227;-48
2022/12/17 22:34:12;;;;;;;1.08;0.82;;;22.80;51.40;;;;;;5012092;28;20689;-44
2022/12/17 22:36:45;;;;;;;0.70;0.70;;;22.80;51.40;;;;;;5011230;28;20224;-43
2022/12/17 22:39:17;;;;;;;0.90;0.90;;;22.80;51.50;;;;;;5011751;28;20205;-49
2022/12/17 22:44:34;;;;;;;1.00;0.90;;;22.80;51.50;;;;;;5011977;28;20199;-46
2022/12/17 22:47:04;;;;;;;1.10;1.00;;;22.80;51.50;;;;;;5011961;28;20236;-50
2022/12/17 22:49:35;;;;;;;1.00;0.90;;;22.80;51.70;;;;;;5011536;28;20211;-41
2022/12/17 22:52:08;;;;;;;1.10;1.00;;;22.80;51.70;;;;;;5011381;28;20204;-48
2022/12/17 22:54:39;;;;;;;1.10;0.80;;;22.80;51.70;;;;;;5011917;28;20193;-47
2022/12/17 22:57:09;;;;;;;1.10;1.00;;;22.80;51.60;;;;;;5012247;28;20209;-49
2022/12/17 22:59:40;;;;;;;1.35;1.10;;;22.80;51.60;;;;;;5011094;28;20196;-46
2022/12/17 23:02:11;;;;;;;1.20;1.10;;;22.80;51.60;;;;;;5011596;28;20204;-43
2022/12/17 23:04:41;;;;;;;1.05;0.98;;;22.80;51.60;;;;;;5011296;28;20660;-43
2022/12/17 23:07:14;;;;;;;1.17;1.08;;;22.80;51.60;;;;;;5009384;28;20235;-46
2022/12/17 23:09:45;;;;;;;1.13;1.00;;;22.80;51.70;;;;;;5010867;28;20208;-39
2022/12/17 23:15:02;;;;;;;1.10;1.00;;;22.80;51.60;;;;;;5011935;28;20200;-44
2022/12/17 23:17:33;;;;;;;1.38;1.00;;;22.80;51.60;;;;;;5011514;28;20213;-44
2022/12/17 23:20:04;;;;;;;1.20;1.10;;;22.80;51.70;;;;;;5011393;28;20205;-49
2022/12/17 23:22:37;;;;;;;1.40;1.20;;;22.80;51.80;;;;;;5010319;28;20192;-48
2022/12/17 23:25:08;;;;;;;1.45;1.35;;;22.80;51.90;;;;;;5010602;28;20205;-49
2022/12/17 23:27:39;;;;;;;1.23;1.13;;;22.80;51.90;;;;;;5009935;28;20223;-51
2022/12/17 23:30:11;;;;;;;1.70;1.30;;;22.80;52.00;;;;;;5010527;28;20204;-51
2022/12/17 23:32:42;;;;;;;1.58;1.40;;;22.80;51.80;;;;;;4998233;28;20288;-46
2022/12/17 23:35:13;;;;;;;1.10;1.00;;;22.80;51.90;;;;;;4991359;28;20216;-50
2022/12/17 23:37:46;;;;;;;1.20;1.10;;;22.80;51.90;;;;;;5008485;28;20221;-51
2022/12/17 23:40:17;;;;;;;1.20;1.00;;;22.80;51.90;;;;;;5010183;28;20232;-48
2022/12/17 23:42:47;;;;;;;1.40;1.30;;;22.80;51.90;;;;;;5010311;28;20215;-49
2022/12/17 23:45:18;;;;;;;0.93;0.90;;;22.80;51.90;;;;;;5010585;28;20784;-50
2022/12/17 23:47:49;;;;;;;1.15;1.05;;;22.80;51.90;;;;;;5010453;28;20227;-52
2022/12/17 23:50:19;;;;;;;1.35;1.10;;;22.80;51.90;;;;;;5010870;28;20197;-44
2022/12/17 23:52:52;;;;;;;1.40;1.13;;;22.80;51.90;;;;;;5010430;28;20197;-45
2022/12/17 23:55:23;;;;;;;1.10;1.00;;;22.80;51.90;;;;;;5011192;28;20211;-66
2022/12/17 23:57:59;;;;;;;1.63;1.23;;;22.80;52.00;;;;;;5010832;28;20221;-46
